createdAt,value
2022-10-04T00:01:44.352Z,95991.00
2022-10-04T00:04:25.139Z,95994.20
2022-10-04T00:07:14.159Z,95992.40
2022-10-04T00:10:13.476Z,95994.60
2022-10-04T00:12:50.553Z,95991.00
2022-10-04T00:15:21.313Z,95991.40
2022-10-04T00:18:21.270Z,95988.80
2022-10-04T00:20:49.906Z,95981.00
2022-10-04T00:23:28.783Z,95981.80
2022-10-04T00:26:04.423Z,95978.00
2022-10-04T00:28:36.484Z,95978.20
2022-10-04T00:31:24.132Z,95972.60
2022-10-04T00:34:16.367Z,95963.80
2022-10-04T00:36:50.517Z,95970.40
2022-10-04T00:39:26.053Z,95976.20
2022-10-04T00:42:42.270Z,95983.60
2022-10-04T00:45:24.530Z,95981.60
2022-10-04T00:48:03.710Z,95966.80
2022-10-04T00:50:39.331Z,95965.20
2022-10-04T00:53:21.817Z,95966.20
2022-10-04T00:55:56.442Z,95958.80
2022-10-04T00:58:33.273Z,95959.60
2022-10-04T01:01:00.696Z,95955.20
2022-10-04T01:03:39.206Z,95956.60
2022-10-04T01:06:08.559Z,95957.20
2022-10-04T01:08:44.914Z,95956.80
2022-10-04T01:11:18.117Z,95958.20
2022-10-04T01:14:08.669Z,95951.00
2022-10-04T01:16:36.997Z,95944.60
2022-10-04T01:19:21.452Z,95950.20
2022-10-04T01:22:08.916Z,95951.40
2022-10-04T01:24:40.335Z,95947.60
2022-10-04T01:27:50.621Z,95942.80
2022-10-04T01:30:16.984Z,95935.80
2022-10-04T01:32:45.222Z,95932.00
2022-10-04T01:35:14.275Z,95937.00
2022-10-04T01:37:40.755Z,95939.80
2022-10-04T01:40:09.028Z,95940.20
2022-10-04T01:42:49.278Z,95940.60
2022-10-04T01:45:46.296Z,95938.80
2022-10-04T01:48:17.655Z,95932.40
2022-10-04T01:50:55.013Z,95937.20
2022-10-04T01:53:30.145Z,95928.40
2022-10-04T01:56:16.811Z,95926.80
2022-10-04T01:58:49.201Z,95918.60
2022-10-04T02:01:21.848Z,95915.60
2022-10-04T02:04:00.137Z,95915.80
2022-10-04T02:06:27.213Z,95908.80
2022-10-04T02:08:56.803Z,95910.00
2022-10-04T02:11:27.619Z,95902.40
2022-10-04T02:13:54.779Z,95898.20
2022-10-04T02:16:23.845Z,95904.00
2022-10-04T02:18:50.987Z,95905.80
2022-10-04T02:21:18.389Z,95909.00
2022-10-04T02:23:46.601Z,95905.60
2022-10-04T02:26:13.321Z,95899.00
2022-10-04T02:28:39.574Z,95898.80
2022-10-04T02:31:26.460Z,95892.20
2022-10-04T02:33:57.454Z,95892.40
2022-10-04T02:36:27.822Z,95895.20
2022-10-04T02:39:06.142Z,95893.20
2022-10-04T02:41:37.595Z,95903.00
2022-10-04T02:44:17.404Z,95907.00
2022-10-04T02:46:53.644Z,95905.40
2022-10-04T02:49:29.619Z,95901.40
2022-10-04T02:52:15.675Z,95899.40
2022-10-04T02:55:06.763Z,95898.40
2022-10-04T02:57:34.233Z,95900.00
2022-10-04T03:00:12.155Z,95898.60
2022-10-04T03:02:39.495Z,95901.80
2022-10-04T03:05:12.797Z,95900.20
2022-10-04T03:07:39.781Z,95888.80
2022-10-04T03:10:12.060Z,95893.60
2022-10-04T03:12:42.750Z,95896.00
2022-10-04T03:15:12.337Z,95896.20
2022-10-04T03:17:41.533Z,95895.60
2022-10-04T03:20:14.014Z,95893.00
2022-10-04T03:22:46.935Z,95890.20
2022-10-04T03:25:23.266Z,95891.40
2022-10-04T03:27:50.595Z,95893.00
2022-10-04T03:30:20.609Z,95885.80
2022-10-04T03:32:48.660Z,95881.00
2022-10-04T03:35:29.923Z,95881.60
2022-10-04T03:37:58.385Z,95882.80
2022-10-04T03:40:31.100Z,95889.20
2022-10-04T03:43:00.539Z,95890.20
2022-10-04T03:45:28.505Z,95892.60
2022-10-04T03:48:04.544Z,95889.20
2022-10-04T03:50:36.404Z,95884.60
2022-10-04T03:53:12.111Z,95885.00
2022-10-04T03:55:45.264Z,95888.20
2022-10-04T03:58:16.512Z,95888.60
2022-10-04T04:00:59.780Z,95893.00
2022-10-04T04:03:29.308Z,95895.20
2022-10-04T04:05:59.618Z,95893.00
2022-10-04T04:08:39.153Z,95897.20
2022-10-04T04:11:10.656Z,95897.60
2022-10-04T04:14:00.707Z,95893.80
2022-10-04T04:16:27.765Z,95888.00
2022-10-04T04:19:00.398Z,95885.60
2022-10-04T04:21:27.648Z,95883.40
2022-10-04T04:24:00.113Z,95880.40
2022-10-04T04:26:43.389Z,95884.20
2022-10-04T04:29:22.372Z,95883.00
2022-10-04T04:32:33.369Z,95885.60
2022-10-04T04:35:07.241Z,95892.40
2022-10-04T04:37:37.784Z,95896.40
2022-10-04T04:40:23.985Z,95892.60
2022-10-04T04:42:51.591Z,95896.20
2022-10-04T04:45:25.163Z,95895.80
2022-10-04T04:47:56.732Z,95893.40
2022-10-04T04:50:27.295Z,95896.00
2022-10-04T04:53:07.101Z,95889.00
2022-10-04T04:56:05.070Z,95895.40
2022-10-04T04:58:46.945Z,95891.80
2022-10-04T05:01:26.389Z,95888.20
2022-10-04T05:04:04.409Z,95886.20
2022-10-04T05:06:32.767Z,95882.60
2022-10-04T05:08:58.927Z,95889.40
2022-10-04T05:11:32.156Z,95890.80
2022-10-04T05:14:08.997Z,95879.80
2022-10-04T05:16:55.281Z,95890.20
2022-10-04T05:19:26.943Z,95899.60
2022-10-04T05:21:56.135Z,95903.20
2022-10-04T05:24:29.846Z,95888.00
2022-10-04T05:27:03.135Z,95885.60
2022-10-04T05:29:37.697Z,95888.00
2022-10-04T05:32:59.752Z,95896.00
2022-10-04T05:35:28.151Z,95898.80
2022-10-04T05:38:38.371Z,95899.80
2022-10-04T05:41:15.620Z,95894.20
2022-10-04T05:43:49.437Z,95891.80
2022-10-04T05:46:24.546Z,95880.80
2022-10-04T05:49:19.458Z,95877.40
2022-10-04T05:52:01.283Z,95864.00
2022-10-04T05:54:32.176Z,95875.80
2022-10-04T05:57:31.080Z,95878.00
2022-10-04T06:00:13.832Z,95880.20
2022-10-04T06:03:15.271Z,95881.40
2022-10-04T06:06:08.705Z,95882.60
2022-10-04T06:08:46.522Z,95887.00
2022-10-04T06:11:56.336Z,95893.80
2022-10-04T06:14:41.033Z,95897.20
2022-10-04T06:17:25.363Z,95898.80
2022-10-04T06:20:06.017Z,95881.40
2022-10-04T06:22:32.585Z,95882.80
2022-10-04T06:25:05.826Z,95886.60
2022-10-04T06:27:43.498Z,95887.60
2022-10-04T06:30:18.633Z,95885.40
2022-10-04T06:32:59.799Z,95879.80
2022-10-04T06:35:59.939Z,95883.40
2022-10-04T06:39:10.339Z,95887.20
2022-10-04T06:42:06.691Z,95892.00
2022-10-04T06:45:20.647Z,95894.00
2022-10-04T06:48:08.350Z,95885.80
2022-10-04T06:51:15.218Z,95890.40
2022-10-04T06:54:08.054Z,95882.60
2022-10-04T06:56:49.152Z,95881.00
2022-10-04T06:59:51.998Z,95885.40
2022-10-04T07:02:45.149Z,95882.80
2022-10-04T07:05:33.142Z,95882.20
2022-10-04T07:08:31.949Z,95878.20
2022-10-04T07:11:13.193Z,95872.80
2022-10-04T07:13:56.977Z,95870.20
2022-10-04T07:16:46.504Z,95873.00
2022-10-04T07:19:46.609Z,95875.00
2022-10-04T07:22:35.395Z,95879.00
2022-10-04T07:25:23.806Z,95884.60
2022-10-04T07:28:26.928Z,95887.80
2022-10-04T07:31:14.667Z,95897.80
2022-10-04T07:33:54.188Z,95897.20
2022-10-04T07:36:38.612Z,95904.20
2022-10-04T07:39:14.818Z,95906.00
2022-10-04T07:41:49.664Z,95904.20
2022-10-04T07:44:40.746Z,95897.00
2022-10-04T07:47:20.690Z,95897.00
2022-10-04T07:49:50.299Z,95898.40
2022-10-04T07:52:56.918Z,95894.80
2022-10-04T07:55:43.790Z,95898.60
2022-10-04T07:58:25.313Z,95904.40
2022-10-04T08:01:06.329Z,95909.20
2022-10-04T08:04:17.777Z,95917.00
2022-10-04T08:06:59.278Z,95914.00
2022-10-04T08:09:41.965Z,95916.00
2022-10-04T08:12:19.969Z,95917.60
2022-10-04T08:15:34.317Z,95914.20
2022-10-04T08:18:55.010Z,95907.80
2022-10-04T08:21:36.094Z,95912.20
2022-10-04T08:24:35.400Z,95910.20
2022-10-04T08:27:39.123Z,95913.40
2022-10-04T08:30:16.514Z,95911.80
2022-10-04T08:33:11.594Z,95908.40
2022-10-04T08:35:45.581Z,95909.40
2022-10-04T08:38:42.355Z,95913.40
2022-10-04T08:41:49.046Z,95907.40
2022-10-04T08:44:52.790Z,95905.20
2022-10-04T08:48:23.989Z,95897.80
2022-10-04T08:51:23.908Z,95898.40
2022-10-04T08:54:27.213Z,95894.00
2022-10-04T08:57:15.838Z,95894.00
2022-10-04T08:59:57.143Z,95891.40
2022-10-04T09:02:53.218Z,95885.40
2022-10-04T09:05:51.078Z,95883.00
2022-10-04T09:08:38.547Z,95881.60
2022-10-04T09:11:29.827Z,95878.80
2022-10-04T09:14:38.307Z,95877.00
2022-10-04T09:17:28.191Z,95882.00
2022-10-04T09:20:53.239Z,95880.00
2022-10-04T09:23:31.475Z,95883.00
2022-10-04T09:26:32.455Z,95886.00
2022-10-04T09:29:16.187Z,95883.40
2022-10-04T09:32:28.419Z,95889.40
2022-10-04T09:35:13.321Z,95895.00
2022-10-04T09:38:04.921Z,95895.60
2022-10-04T09:41:08.821Z,95888.00
2022-10-04T09:44:33.257Z,95880.20
2022-10-04T09:47:31.260Z,95872.20
2022-10-04T09:50:36.675Z,95878.60
2022-10-04T09:53:21.307Z,95877.80
2022-10-04T09:56:03.842Z,95883.60
2022-10-04T09:58:58.404Z,95882.60
2022-10-04T10:02:18.431Z,95880.40
2022-10-04T10:05:22.215Z,95887.40
2022-10-04T10:08:16.175Z,95888.80
2022-10-04T10:11:34.443Z,95895.40
2022-10-04T10:14:23.674Z,95884.60
2022-10-04T10:17:18.717Z,95884.20
2022-10-04T10:20:09.349Z,95875.00
2022-10-04T10:23:19.942Z,95879.60
2022-10-04T10:26:13.939Z,95876.40
2022-10-04T10:29:02.408Z,95880.00
2022-10-04T10:31:55.947Z,95889.80
2022-10-04T10:35:22.511Z,95897.20
2022-10-04T10:38:16.464Z,95901.80
2022-10-04T10:41:40.493Z,95902.20
2022-10-04T10:44:22.082Z,95909.40
2022-10-04T10:47:44.199Z,95909.80
2022-10-04T10:50:57.701Z,95909.60
2022-10-04T10:54:06.940Z,95909.40
2022-10-04T10:57:17.220Z,95910.60
2022-10-04T11:00:11.283Z,95916.20
2022-10-04T11:03:13.167Z,95914.20
2022-10-04T11:05:59.373Z,95912.60
2022-10-04T11:09:13.406Z,95904.40
2022-10-04T11:12:18.043Z,95900.00
2022-10-04T11:15:05.541Z,95898.60
2022-10-04T11:18:11.774Z,95893.60
2022-10-04T11:20:49.095Z,95890.40
2022-10-04T11:23:51.297Z,95889.20
2022-10-04T11:27:00.775Z,95883.20
2022-10-04T11:30:25.758Z,95889.20
2022-10-04T11:33:27.956Z,95894.60
2022-10-04T11:36:29.494Z,95889.80
2022-10-04T11:39:25.090Z,95885.00
2022-10-04T11:42:43.449Z,95878.80
2022-10-04T11:45:33.464Z,95878.40
2022-10-04T11:48:45.398Z,95879.80
2022-10-04T11:51:31.546Z,95876.00
2022-10-04T11:54:31.142Z,95875.60
2022-10-04T11:57:20.539Z,95873.40
2022-10-04T12:00:23.882Z,95871.40
2022-10-04T12:03:36.915Z,95872.20
2022-10-04T12:06:57.807Z,95874.00
2022-10-04T12:09:49.164Z,95872.60
2022-10-04T12:12:36.231Z,95868.40
2022-10-04T12:15:48.771Z,95860.20
2022-10-04T12:18:43.289Z,95863.60
2022-10-04T12:21:35.342Z,95857.00
2022-10-04T12:24:32.642Z,95848.00
2022-10-04T12:27:36.967Z,95843.00
2022-10-04T12:30:30.345Z,95846.80
2022-10-04T12:33:06.138Z,95839.80
2022-10-04T12:36:20.089Z,95836.00
2022-10-04T12:39:10.942Z,95839.40
2022-10-04T12:42:22.607Z,95836.40
2022-10-04T12:44:57.579Z,95836.80
2022-10-04T12:48:16.713Z,95836.60
2022-10-04T12:51:14.411Z,95840.40
2022-10-04T12:53:53.624Z,95842.20
2022-10-04T12:56:42.641Z,95837.20
2022-10-04T12:59:52.155Z,95833.40
2022-10-04T13:02:43.614Z,95830.80
2022-10-04T13:05:49.607Z,95829.80
2022-10-04T13:08:22.121Z,95825.80
2022-10-04T13:11:10.344Z,95825.80
2022-10-04T13:13:49.293Z,95821.40
2022-10-04T13:17:34.592Z,95818.00
2022-10-04T13:20:17.609Z,95815.40
2022-10-04T13:23:02.566Z,95814.40
2022-10-04T13:26:17.038Z,95815.20
2022-10-04T13:28:46.242Z,95819.00
2022-10-04T13:31:52.682Z,95816.40
2022-10-04T13:34:36.024Z,95812.20
2022-10-04T13:37:39.364Z,95816.20
2022-10-04T13:40:31.914Z,95817.40
2022-10-04T13:43:27.734Z,95817.80
2022-10-04T13:46:19.281Z,95817.80
2022-10-04T13:49:15.194Z,95816.20
2022-10-04T13:52:33.859Z,95821.20
2022-10-04T13:55:50.025Z,95824.20
2022-10-04T13:58:27.880Z,95830.80
2022-10-04T14:01:35.936Z,95828.40
2022-10-04T14:04:51.999Z,95835.00
2022-10-04T14:08:30.519Z,95835.60
2022-10-04T14:11:11.316Z,95832.00
2022-10-04T14:14:28.172Z,95834.40
2022-10-04T14:17:52.388Z,95831.40
2022-10-04T14:21:03.055Z,95835.40
2022-10-04T14:24:15.872Z,95835.80
2022-10-04T14:27:09.393Z,95833.60
2022-10-04T14:29:54.355Z,95833.20
2022-10-04T14:32:48.092Z,95829.40
2022-10-04T14:35:52.629Z,95827.80
2022-10-04T14:38:38.311Z,95826.40
2022-10-04T14:41:19.251Z,95819.60
2022-10-04T14:44:24.964Z,95822.60
2022-10-04T14:47:18.313Z,95821.00
2022-10-04T14:50:00.772Z,95823.00
2022-10-04T14:52:49.555Z,95824.40
2022-10-04T14:55:44.634Z,95824.00
2022-10-04T14:58:33.934Z,95827.00
2022-10-04T15:01:20.335Z,95824.40
2022-10-04T15:04:13.029Z,95830.00
2022-10-04T15:06:58.716Z,95827.40
2022-10-04T15:09:47.857Z,95828.80
2022-10-04T15:13:08.684Z,95831.20
2022-10-04T15:15:56.050Z,95831.60
2022-10-04T15:18:51.691Z,95832.20
2022-10-04T15:21:41.028Z,95831.60
2022-10-04T15:24:15.702Z,95838.20
2022-10-04T15:27:22.767Z,95837.80
2022-10-04T15:30:18.708Z,95835.80
2022-10-04T15:33:08.560Z,95840.60
2022-10-04T15:36:01.750Z,95843.20
2022-10-04T15:38:42.991Z,95842.20
2022-10-04T15:41:27.568Z,95841.60
2022-10-04T15:44:12.770Z,95838.60
2022-10-04T15:47:06.784Z,95838.00
2022-10-04T15:50:11.752Z,95839.80
2022-10-04T15:53:35.674Z,95836.20
2022-10-04T15:56:32.798Z,95842.80
2022-10-04T15:59:46.682Z,95843.40
2022-10-04T16:03:02.946Z,95844.00
2022-10-04T16:05:36.913Z,95842.60
2022-10-04T16:08:05.711Z,95838.20
2022-10-04T16:11:02.829Z,95832.80
2022-10-04T16:14:09.120Z,95829.60
2022-10-04T16:16:50.208Z,95831.80
2022-10-04T16:19:31.157Z,95833.60
2022-10-04T16:22:14.445Z,95832.00
2022-10-04T16:24:56.966Z,95833.00
2022-10-04T16:27:56.592Z,95833.20
2022-10-04T16:30:37.388Z,95832.00
2022-10-04T16:33:30.564Z,95830.20
2022-10-04T16:36:09.400Z,95829.00
2022-10-04T16:39:06.547Z,95832.20
2022-10-04T16:41:44.459Z,95836.60
2022-10-04T16:44:48.398Z,95832.40
2022-10-04T16:47:30.227Z,95828.20
2022-10-04T16:50:00.036Z,95833.20
2022-10-04T16:52:50.959Z,95828.00
2022-10-04T16:55:41.460Z,95832.40
2022-10-04T16:58:25.521Z,95836.00
2022-10-04T17:01:26.710Z,95832.40
2022-10-04T17:04:19.950Z,95830.60
2022-10-04T17:07:28.623Z,95827.80
2022-10-04T17:10:04.116Z,95824.20
2022-10-04T17:13:27.538Z,95821.40
2022-10-04T17:16:14.081Z,95818.60
2022-10-04T17:19:05.359Z,95819.00
2022-10-04T17:21:45.750Z,95822.00
2022-10-04T17:25:01.312Z,95830.00
2022-10-04T17:27:50.014Z,95830.80
2022-10-04T17:30:24.758Z,95831.60
2022-10-04T17:33:42.014Z,95837.60
2022-10-04T17:36:33.919Z,95841.40
2022-10-04T17:39:47.897Z,95838.60
2022-10-04T17:42:54.061Z,95831.20
2022-10-04T17:45:35.202Z,95833.00
2022-10-04T17:48:31.927Z,95837.80
2022-10-04T17:51:40.950Z,95840.60
2022-10-04T17:54:43.203Z,95842.40
2022-10-04T17:57:25.610Z,95848.80
2022-10-04T18:00:08.667Z,95855.80
2022-10-04T18:02:52.243Z,95862.20
2022-10-04T18:05:27.923Z,95860.00
2022-10-04T18:08:07.700Z,95857.20
2022-10-04T18:10:58.081Z,95855.60
2022-10-04T18:13:47.191Z,95855.00
2022-10-04T18:16:48.888Z,95859.40
2022-10-04T18:19:49.698Z,95862.80
2022-10-04T18:22:20.490Z,95862.40
2022-10-04T18:25:02.081Z,95860.60
2022-10-04T18:27:29.056Z,95866.40
2022-10-04T18:30:01.092Z,95871.60
2022-10-04T18:32:26.944Z,95866.00
2022-10-04T18:34:59.509Z,95863.00
2022-10-04T18:37:38.009Z,95862.80
2022-10-04T18:40:20.675Z,95862.20
2022-10-04T18:42:59.714Z,95868.80
2022-10-04T18:45:28.127Z,95868.20
2022-10-04T18:47:56.609Z,95866.00
2022-10-04T18:50:37.655Z,95864.40
2022-10-04T18:53:21.716Z,95865.20
2022-10-04T18:56:00.484Z,95862.80
2022-10-04T18:59:17.060Z,95872.00
2022-10-04T19:02:05.780Z,95869.20
2022-10-04T19:05:26.614Z,95868.20
2022-10-04T19:08:28.316Z,95863.40
2022-10-04T19:11:13.555Z,95875.40
2022-10-04T19:14:15.937Z,95875.40
2022-10-04T19:17:17.668Z,95879.20
2022-10-04T19:20:09.871Z,95875.80
2022-10-04T19:23:02.419Z,95875.80
2022-10-04T19:25:40.472Z,95873.20
2022-10-04T19:28:11.971Z,95876.40
2022-10-04T19:30:59.880Z,95877.80
2022-10-04T19:33:53.731Z,95884.00
2022-10-04T19:36:57.664Z,95886.60
2022-10-04T19:40:20.673Z,95894.20
2022-10-04T19:43:10.492Z,95899.20
2022-10-04T19:46:10.968Z,95898.00
2022-10-04T19:49:27.985Z,95887.80
2022-10-04T19:52:21.293Z,95880.40
2022-10-04T19:54:53.070Z,95879.60
2022-10-04T19:57:37.467Z,95886.20
2022-10-04T20:00:12.041Z,95890.80
2022-10-04T20:02:45.958Z,95892.00
2022-10-04T20:05:23.855Z,95895.20
2022-10-04T20:07:56.430Z,95895.20
2022-10-04T20:10:32.863Z,95896.40
2022-10-04T20:13:12.779Z,95890.60
2022-10-04T20:15:39.447Z,95890.60
2022-10-04T20:18:33.722Z,95891.40
2022-10-04T20:21:00.426Z,95884.80
2022-10-04T20:23:38.759Z,95880.40
2022-10-04T20:26:10.221Z,95883.00
2022-10-04T20:28:42.649Z,95888.00
2022-10-04T20:31:32.394Z,95884.80
2022-10-04T20:34:37.759Z,95890.80
2022-10-04T20:37:08.235Z,95893.80
2022-10-04T20:39:40.143Z,95894.20
2022-10-04T20:42:38.099Z,95891.20
2022-10-04T20:45:09.864Z,95898.60
2022-10-04T20:47:48.813Z,95892.80
2022-10-04T20:50:24.250Z,95891.40
2022-10-04T20:53:05.361Z,95891.00
2022-10-04T20:55:36.035Z,95895.40
2022-10-04T20:58:24.846Z,95900.00
2022-10-04T21:00:54.419Z,95900.80
2022-10-04T21:03:21.926Z,95903.00
2022-10-04T21:06:07.826Z,95903.60
2022-10-04T21:08:35.066Z,95901.40
2022-10-04T21:11:20.048Z,95909.60
2022-10-04T21:13:52.604Z,95911.00
2022-10-04T21:16:48.935Z,95910.80
2022-10-04T21:19:47.788Z,95912.20
2022-10-04T21:22:16.458Z,95916.20
2022-10-04T21:24:45.414Z,95917.60
2022-10-04T21:27:31.696Z,95922.40
2022-10-04T21:29:59.795Z,95917.80
2022-10-04T21:32:27.317Z,95920.20
2022-10-04T21:34:54.643Z,95920.60
2022-10-04T21:37:21.518Z,95923.80
2022-10-04T21:39:47.572Z,95919.80
2022-10-04T21:42:13.661Z,95921.60
2022-10-04T21:44:39.760Z,95920.80
2022-10-04T21:47:05.759Z,95926.60
2022-10-04T21:49:31.814Z,95929.40
2022-10-04T21:51:57.758Z,95934.40
2022-10-04T21:54:24.185Z,95934.40
2022-10-04T21:56:50.184Z,95932.80
2022-10-04T21:59:16.146Z,95939.80
2022-10-04T22:01:42.065Z,95941.80
2022-10-04T22:04:07.985Z,95941.80
2022-10-04T22:06:33.903Z,95936.60
2022-10-04T22:08:59.817Z,95934.00
2022-10-04T22:11:25.982Z,95936.20
2022-10-04T22:13:51.934Z,95936.80
2022-10-04T22:16:17.908Z,95930.40
2022-10-04T22:18:43.877Z,95932.20
2022-10-04T22:21:09.856Z,95924.40
2022-10-04T22:23:40.924Z,95925.80
2022-10-04T22:26:17.458Z,95922.20
2022-10-04T22:28:55.299Z,95925.40
2022-10-04T22:31:27.449Z,95925.40
2022-10-04T22:33:54.880Z,95922.00
2022-10-04T22:36:36.376Z,95924.60
2022-10-04T22:39:13.936Z,95924.40
2022-10-04T22:41:47.876Z,95927.60
2022-10-04T22:44:24.591Z,95927.20
2022-10-04T22:46:53.731Z,95923.60
2022-10-04T22:49:24.157Z,95921.00
2022-10-04T22:51:52.046Z,95920.60
2022-10-04T22:54:24.352Z,95922.60
2022-10-04T22:56:52.441Z,95927.80
2022-10-04T22:59:20.633Z,95929.60
2022-10-04T23:01:47.232Z,95933.40
2022-10-04T23:04:18.305Z,95935.00
2022-10-04T23:06:44.646Z,95935.20
2022-10-04T23:09:10.962Z,95937.80
2022-10-04T23:11:36.870Z,95934.60
2022-10-04T23:14:02.841Z,95939.80
2022-10-04T23:16:28.833Z,95940.00
2022-10-04T23:19:05.392Z,95940.20
2022-10-04T23:21:34.694Z,95938.80
2022-10-04T23:24:14.863Z,95943.00
2022-10-04T23:26:43.628Z,95947.60
2022-10-04T23:29:21.659Z,95941.40
2022-10-04T23:31:49.059Z,95941.80
2022-10-04T23:34:36.365Z,95939.40
2022-10-04T23:37:10.276Z,95943.00
2022-10-04T23:39:36.977Z,95942.20
2022-10-04T23:42:31.778Z,95939.40
2022-10-04T23:44:59.828Z,95939.20
2022-10-04T23:47:35.971Z,95941.20
2022-10-04T23:50:18.155Z,95941.00
2022-10-04T23:52:44.667Z,95939.80
2022-10-04T23:55:27.350Z,95938.00
2022-10-04T23:57:53.230Z,95941.60
